Mobridge Municipal Airport Mobridge US
ICAO: KMBG
IATA: MBG
Category: Medium
Scheduled Services: No

Elevation: 1716 ft
TransAlt. 18000 ft.

Airport Communications:
ASOS:121.425
HURON RDO:122.35
CTAF/UNICOM:122.8

KMBG Zoom In..

Runways:

(A) RW 12 length 4410 ft width 75 ft
---- / hdg 118

(B) RW 17 length 2399 ft width 250 ft
---- / hdg 171

(C) RW 30 length 4410 ft width 75 ft
---- / hdg 298

(D) RW 35 length 2399 ft width 250 ft
---- / hdg 351

Location; KMBG
Day. 16 / Time. 17.52 Zulu
* Altimeter: 30.07
* Temperature: 6/° c. 42.8°f.
* Wind from: 150° Speed 09 kn.
Dewpoint: //° c.
Visibility: 10 Statute Miles.
Clouds: Clear (automated report).

KMBG 161752Z AUTO 15009KT 10SM CLR 28/13 A3007 RMK AO2 SLP174 6//// T02830128 10283 20144 56007


Wind From 150°
Speed 09 kn.

 
 
jpsmedia.com for Web Design worldairports.se 2018   terms of use